createdAt,value
2018-10-07T00:01:31.457Z,88.50
2018-10-07T00:04:37.002Z,88.90
2018-10-07T00:07:42.397Z,88.30
2018-10-07T00:10:47.795Z,88.70
2018-10-07T00:13:53.231Z,88.90
2018-10-07T00:16:58.627Z,89.10
2018-10-07T00:20:04.418Z,89.30
2018-10-07T00:23:09.930Z,89.50
2018-10-07T00:26:15.344Z,89.80
2018-10-07T00:29:20.852Z,90.10
2018-10-07T00:32:26.299Z,90.30
2018-10-07T00:35:31.782Z,90.40
2018-10-07T00:38:37.166Z,90.40
2018-10-07T00:41:42.583Z,90.30
2018-10-07T00:44:48.378Z,90.40
2018-10-07T00:47:54.203Z,90.50
2018-10-07T00:50:59.971Z,90.40
2018-10-07T00:54:05.573Z,90.70
2018-10-07T00:57:11.003Z,90.90
2018-10-07T01:00:16.462Z,90.90
2018-10-07T01:03:21.858Z,90.90
2018-10-07T01:06:27.263Z,90.90
2018-10-07T01:09:32.662Z,90.80
2018-10-07T01:12:38.066Z,90.90
2018-10-07T01:15:43.466Z,90.80
2018-10-07T01:18:48.858Z,90.80
2018-10-07T01:21:54.269Z,90.80
2018-10-07T01:24:59.770Z,91.10
2018-10-07T01:28:05.153Z,91.10
2018-10-07T01:31:10.559Z,90.20
2018-10-07T01:34:16.003Z,90.40
2018-10-07T01:37:21.414Z,90.40
2018-10-07T01:40:26.842Z,90.10
2018-10-07T01:43:34.451Z,89.80
2018-10-07T01:46:39.865Z,89.50
2018-10-07T01:49:45.241Z,90.10
2018-10-07T01:52:52.763Z,90.40
2018-10-07T01:55:58.149Z,90.20
2018-10-07T01:59:03.522Z,88.90
2018-10-07T02:02:09.030Z,89.10
2018-10-07T02:05:14.624Z,88.00
2018-10-07T02:08:20.146Z,88.10
2018-10-07T02:11:25.538Z,89.10
2018-10-07T02:14:31.096Z,89.00
2018-10-07T02:17:36.518Z,89.30
2018-10-07T02:20:41.917Z,90.00
2018-10-07T02:23:47.578Z,89.60
2018-10-07T02:26:53.539Z,89.90
2018-10-07T02:29:58.906Z,89.10
2018-10-07T02:33:04.427Z,89.20
2018-10-07T02:36:09.855Z,89.20
2018-10-07T02:39:15.314Z,88.80
2018-10-07T02:42:20.771Z,87.90
2018-10-07T02:45:26.282Z,87.10
2018-10-07T02:48:31.691Z,88.40
2018-10-07T02:51:37.967Z,88.60
2018-10-07T02:54:43.561Z,89.20
2018-10-07T02:57:50.202Z,89.10
2018-10-07T03:00:55.979Z,88.90
2018-10-07T03:04:01.503Z,88.60
2018-10-07T03:07:07.747Z,89.00
2018-10-07T03:10:13.196Z,89.40
2018-10-07T03:13:18.679Z,90.00
2018-10-07T03:16:24.099Z,90.00
2018-10-07T03:19:29.802Z,89.40
2018-10-07T03:22:35.714Z,89.50
2018-10-07T03:25:41.110Z,89.80
2018-10-07T03:28:46.551Z,90.00
2018-10-07T03:31:51.983Z,90.40
2018-10-07T03:34:57.421Z,90.40
2018-10-07T03:38:02.814Z,90.10
2018-10-07T03:41:19.598Z,90.40
2018-10-07T03:44:25.027Z,90.50
2018-10-07T03:47:30.702Z,90.40
2018-10-07T03:50:36.570Z,90.30
2018-10-07T03:53:42.034Z,90.40
2018-10-07T03:56:47.557Z,90.20
2018-10-07T03:59:53.055Z,90.10
2018-10-07T04:02:58.583Z,89.50
2018-10-07T04:06:03.987Z,89.50
2018-10-07T04:09:11.502Z,88.50
2018-10-07T04:12:17.126Z,88.80
2018-10-07T04:15:22.594Z,89.20
2018-10-07T04:18:28.025Z,89.10
2018-10-07T04:21:33.480Z,88.90
2018-10-07T04:24:38.951Z,89.30
2018-10-07T04:27:44.355Z,88.90
2018-10-07T04:30:49.753Z,89.10
2018-10-07T04:33:55.301Z,89.40
2018-10-07T04:37:00.722Z,88.80
2018-10-07T04:40:06.390Z,89.30
2018-10-07T04:43:11.845Z,89.80
2018-10-07T04:46:17.297Z,90.00
2018-10-07T04:49:22.881Z,89.10
2018-10-07T04:52:28.291Z,89.50
2018-10-07T04:55:33.730Z,89.00
2018-10-07T04:58:39.146Z,88.60
2018-10-07T05:01:44.535Z,88.40
2018-10-07T05:04:50.006Z,88.40
2018-10-07T05:07:55.630Z,88.10
2018-10-07T05:11:02.530Z,87.90
2018-10-07T05:14:09.359Z,87.50
2018-10-07T05:17:17.186Z,86.80
2018-10-07T05:20:22.619Z,87.20
2018-10-07T05:23:28.207Z,87.50
2018-10-07T05:26:34.471Z,87.40
2018-10-07T05:29:39.921Z,87.70
2018-10-07T05:32:45.350Z,88.80
2018-10-07T05:35:50.754Z,88.30
2018-10-07T05:38:56.229Z,87.80
2018-10-07T05:42:01.641Z,87.60
2018-10-07T05:45:07.439Z,88.20
2018-10-07T05:48:12.883Z,88.00
2018-10-07T05:51:18.266Z,88.00
2018-10-07T05:54:23.710Z,88.80
2018-10-07T05:57:29.247Z,88.70
2018-10-07T06:00:36.619Z,88.60
2018-10-07T06:04:56.190Z,88.70
2018-10-07T06:08:02.174Z,88.80
2018-10-07T06:11:07.599Z,88.40
2018-10-07T06:14:34.781Z,88.10
2018-10-07T06:17:40.522Z,88.50
2018-10-07T06:20:46.606Z,88.90
2018-10-07T06:23:52.442Z,88.20
2018-10-07T06:26:57.905Z,87.90
2018-10-07T06:30:03.375Z,88.20
2018-10-07T06:33:08.863Z,88.10
2018-10-07T06:36:14.619Z,87.90
2018-10-07T06:39:20.058Z,87.50
2018-10-07T06:42:28.045Z,87.80
2018-10-07T06:45:33.878Z,87.90
2018-10-07T06:48:39.494Z,86.50
2018-10-07T06:51:44.914Z,86.50
2018-10-07T06:54:51.078Z,87.20
2018-10-07T06:57:56.481Z,87.40
2018-10-07T07:01:01.917Z,86.90
2018-10-07T07:04:07.470Z,86.10
2018-10-07T07:07:12.859Z,86.40
2018-10-07T07:10:19.347Z,86.50
2018-10-07T07:13:24.928Z,86.20
2018-10-07T07:16:31.125Z,85.80
2018-10-07T07:19:36.591Z,85.60
2018-10-07T07:22:42.257Z,86.50
2018-10-07T07:25:47.681Z,85.90
2018-10-07T07:28:53.643Z,85.50
2018-10-07T07:31:59.054Z,85.80
2018-10-07T07:35:04.595Z,85.40
2018-10-07T07:38:09.978Z,83.90
2018-10-07T07:41:15.402Z,83.30
2018-10-07T07:44:20.986Z,82.10
2018-10-07T07:47:26.387Z,81.60
2018-10-07T07:50:31.840Z,81.70
2018-10-07T07:53:37.345Z,81.70
2018-10-07T07:56:42.766Z,82.20
2018-10-07T07:59:48.166Z,82.80
2018-10-07T08:02:53.595Z,82.60
2018-10-07T08:05:59.042Z,82.40
2018-10-07T08:09:05.881Z,81.30
2018-10-07T08:12:11.270Z,81.50
2018-10-07T08:15:16.770Z,80.60
2018-10-07T08:18:22.171Z,78.90
2018-10-07T08:21:27.595Z,79.20
2018-10-07T08:24:33.131Z,80.10
2018-10-07T08:27:38.726Z,79.90
2018-10-07T08:30:46.331Z,77.00
2018-10-07T08:33:51.903Z,74.60
2018-10-07T08:37:00.851Z,73.50
2018-10-07T08:40:06.454Z,72.60
2018-10-07T08:43:11.911Z,71.40
2018-10-07T08:46:18.980Z,71.40
2018-10-07T08:49:28.788Z,69.60
2018-10-07T08:52:38.625Z,70.50
2018-10-07T08:55:48.405Z,70.80
2018-10-07T08:59:07.470Z,70.90
2018-10-07T09:02:13.159Z,71.00
2018-10-07T09:05:18.856Z,71.60
2018-10-07T09:08:24.255Z,71.20
2018-10-07T09:11:29.662Z,71.10
2018-10-07T09:14:35.433Z,70.20
2018-10-07T09:17:41.041Z,69.30
2018-10-07T09:20:46.537Z,69.50
2018-10-07T09:23:52.126Z,69.00
2018-10-07T09:26:57.608Z,67.80
2018-10-07T09:30:04.164Z,68.20
2018-10-07T09:33:09.626Z,67.40
2018-10-07T09:36:15.039Z,67.90
2018-10-07T09:39:20.499Z,66.20
2018-10-07T09:42:26.099Z,67.00
2018-10-07T09:45:32.182Z,66.20
2018-10-07T09:48:38.106Z,63.50
2018-10-07T09:51:43.529Z,63.70
2018-10-07T09:54:48.997Z,63.00
2018-10-07T09:57:54.429Z,63.60
2018-10-07T10:01:00.058Z,61.60
2018-10-07T10:04:05.918Z,61.80
2018-10-07T10:07:11.598Z,61.90
2018-10-07T10:10:17.194Z,62.20
2018-10-07T10:13:22.702Z,61.10
2018-10-07T10:16:39.371Z,60.60
2018-10-07T10:19:57.046Z,59.60
2018-10-07T10:23:18.633Z,59.70
2018-10-07T10:26:42.243Z,59.20
2018-10-07T10:29:53.113Z,59.60
2018-10-07T10:33:11.487Z,58.10
2018-10-07T10:37:07.788Z,56.50
2018-10-07T10:40:29.418Z,56.20
2018-10-07T10:43:57.725Z,55.60
2018-10-07T10:47:11.298Z,54.50
2018-10-07T10:50:29.950Z,53.80
2018-10-07T10:53:44.459Z,54.60
2018-10-07T10:57:07.774Z,54.10
2018-10-07T11:00:15.969Z,52.60
2018-10-07T11:03:48.046Z,51.90
2018-10-07T11:07:16.594Z,51.40
2018-10-07T11:10:42.113Z,51.60
2018-10-07T11:14:02.092Z,50.90
2018-10-07T11:17:41.521Z,49.90
2018-10-07T11:23:08.822Z,49.20
2018-10-07T11:27:27.294Z,48.40
2018-10-07T11:31:42.651Z,46.80
2018-10-07T11:35:14.667Z,45.00
2018-10-07T11:38:44.911Z,45.50
2018-10-07T11:42:05.861Z,44.90
2018-10-07T11:46:24.418Z,44.80
2018-10-07T11:49:45.357Z,42.30
2018-10-07T11:54:09.996Z,40.90
2018-10-07T11:57:15.379Z,39.60
2018-10-07T12:00:20.822Z,37.40
2018-10-07T12:03:26.327Z,37.50
2018-10-07T12:06:32.483Z,35.40
2018-10-07T12:09:37.889Z,35.70
2018-10-07T12:12:43.270Z,37.00
2018-10-07T12:15:48.679Z,36.60
2018-10-07T12:18:54.062Z,35.00
2018-10-07T12:21:59.462Z,34.30
2018-10-07T12:25:05.169Z,34.30
2018-10-07T12:28:10.866Z,32.70
2018-10-07T12:31:16.369Z,30.40
2018-10-07T12:34:21.854Z,30.80
2018-10-07T12:37:28.290Z,30.40
2018-10-07T12:40:33.874Z,31.50
2018-10-07T12:43:39.334Z,30.50
2018-10-07T12:46:44.870Z,31.10
2018-10-07T12:49:50.279Z,30.00
2018-10-07T12:52:56.610Z,28.70
2018-10-07T12:56:02.723Z,28.50
2018-10-07T12:59:08.701Z,27.70
2018-10-07T13:02:14.617Z,27.90
2018-10-07T13:05:20.486Z,26.50
2018-10-07T13:08:25.860Z,26.40
2018-10-07T13:11:31.274Z,27.10
2018-10-07T13:14:36.762Z,27.40
2018-10-07T13:17:42.197Z,27.90
2018-10-07T13:20:47.626Z,27.80
2018-10-07T13:23:53.106Z,30.90
2018-10-07T13:26:58.517Z,32.80
2018-10-07T13:30:04.370Z,33.30
2018-10-07T13:33:09.883Z,31.70
2018-10-07T13:36:15.310Z,33.10
2018-10-07T13:39:20.730Z,34.70
2018-10-07T13:42:26.305Z,34.10
2018-10-07T13:45:31.798Z,35.70
2018-10-07T13:48:37.243Z,37.10
2018-10-07T13:51:42.686Z,38.70
2018-10-07T13:54:48.210Z,40.60
2018-10-07T13:57:53.613Z,41.20
2018-10-07T14:00:59.066Z,42.10
2018-10-07T14:04:04.827Z,42.70
2018-10-07T14:07:10.248Z,44.20
2018-10-07T14:10:15.645Z,44.80
2018-10-07T14:13:21.275Z,45.40
2018-10-07T14:16:30.438Z,46.60
2018-10-07T14:19:35.876Z,46.80
2018-10-07T14:22:41.325Z,47.80
2018-10-07T14:25:47.174Z,47.60
2018-10-07T14:28:52.647Z,47.90
2018-10-07T14:32:00.214Z,48.50
2018-10-07T14:35:06.830Z,47.70
2018-10-07T14:38:14.394Z,47.60
2018-10-07T14:41:22.122Z,48.00
2018-10-07T14:44:27.566Z,48.10
2018-10-07T14:47:32.938Z,48.90
2018-10-07T14:50:38.302Z,49.40
2018-10-07T14:53:43.799Z,50.20
2018-10-07T14:56:49.208Z,51.40
2018-10-07T14:59:54.594Z,52.00
2018-10-07T15:03:00.465Z,52.70
2018-10-07T15:06:09.318Z,52.90
2018-10-07T15:09:25.563Z,52.80
2018-10-07T15:12:35.207Z,52.10
2018-10-07T15:15:42.347Z,52.10
2018-10-07T15:18:50.947Z,52.50
2018-10-07T15:22:00.368Z,52.90
2018-10-07T15:25:18.693Z,52.10
2018-10-07T15:28:26.443Z,52.10
2018-10-07T15:31:38.827Z,53.30
2018-10-07T15:34:44.810Z,53.40
2018-10-07T15:37:52.338Z,52.10
2018-10-07T15:40:57.718Z,53.70
2018-10-07T15:44:03.245Z,54.40
2018-10-07T15:47:08.892Z,55.10
2018-10-07T15:50:14.370Z,55.70
2018-10-07T15:53:19.874Z,56.60
2018-10-07T15:56:25.246Z,56.40
2018-10-07T15:59:30.658Z,56.70
2018-10-07T16:02:36.099Z,56.70
2018-10-07T16:05:41.514Z,57.50
2018-10-07T16:08:46.933Z,57.80
2018-10-07T16:11:52.542Z,58.10
2018-10-07T16:14:57.999Z,58.00
2018-10-07T16:18:03.654Z,57.60
2018-10-07T16:21:11.136Z,58.10
2018-10-07T16:24:19.521Z,58.30
2018-10-07T16:27:28.106Z,58.30
2018-10-07T16:30:36.810Z,58.40
2018-10-07T16:33:42.634Z,59.40
2018-10-07T16:36:48.191Z,60.90
2018-10-07T16:39:53.788Z,61.30
2018-10-07T16:42:59.240Z,61.20
2018-10-07T16:46:04.859Z,61.90
2018-10-07T16:49:10.250Z,62.20
2018-10-07T16:52:15.876Z,61.80
2018-10-07T16:55:21.322Z,61.70
2018-10-07T16:58:26.701Z,62.60
2018-10-07T17:01:32.065Z,63.00
2018-10-07T17:04:37.566Z,64.10
2018-10-07T17:07:43.115Z,64.20
2018-10-07T17:10:48.465Z,64.70
2018-10-07T17:13:54.012Z,65.20
2018-10-07T17:16:59.378Z,65.60
2018-10-07T17:20:04.787Z,66.10
2018-10-07T17:23:10.299Z,66.20
2018-10-07T17:26:15.808Z,66.20
2018-10-07T17:29:21.311Z,67.20
2018-10-07T17:32:26.662Z,67.30
2018-10-07T17:35:34.206Z,67.30
2018-10-07T17:38:39.647Z,67.50
2018-10-07T17:41:45.014Z,67.30
2018-10-07T17:44:50.454Z,68.30
2018-10-07T17:47:55.859Z,68.80
2018-10-07T17:51:01.226Z,69.50
2018-10-07T17:54:06.925Z,69.80
2018-10-07T17:57:12.302Z,70.10
2018-10-07T18:00:17.792Z,70.00
2018-10-07T18:03:23.322Z,70.30
2018-10-07T18:06:29.653Z,70.30
2018-10-07T18:09:35.062Z,70.20
2018-10-07T18:12:40.502Z,71.00
2018-10-07T18:15:49.353Z,71.60
2018-10-07T18:19:06.760Z,71.80
2018-10-07T18:22:12.123Z,72.20
2018-10-07T18:25:17.903Z,72.90
2018-10-07T18:28:23.278Z,72.80
2018-10-07T18:31:28.634Z,73.30
2018-10-07T18:34:34.411Z,73.30
2018-10-07T18:37:39.947Z,73.90
2018-10-07T18:40:45.329Z,73.60
2018-10-07T18:43:50.791Z,74.00
2018-10-07T18:46:56.461Z,74.10
2018-10-07T18:50:01.933Z,74.30
2018-10-07T18:53:07.767Z,74.80
2018-10-07T18:56:13.175Z,75.50
2018-10-07T18:59:18.569Z,75.90
2018-10-07T19:02:24.524Z,76.10
2018-10-07T19:05:30.153Z,76.30
2018-10-07T19:08:35.558Z,76.50
2018-10-07T19:11:41.123Z,76.50
2018-10-07T19:14:46.668Z,76.60
2018-10-07T19:17:52.207Z,76.50
2018-10-07T19:20:57.626Z,76.40
2018-10-07T19:24:03.293Z,76.50
2018-10-07T19:27:08.799Z,77.00
2018-10-07T19:30:14.210Z,78.00
2018-10-07T19:33:19.690Z,77.70
2018-10-07T19:36:25.114Z,77.60
2018-10-07T19:39:30.500Z,77.50
2018-10-07T19:42:38.159Z,78.10
2018-10-07T19:45:43.558Z,78.30
2018-10-07T19:48:48.926Z,78.60
2018-10-07T19:51:54.330Z,78.50
2018-10-07T19:54:59.810Z,79.30
2018-10-07T19:58:05.212Z,79.80
2018-10-07T20:01:10.610Z,79.80
2018-10-07T20:04:16.243Z,80.50
2018-10-07T20:07:21.655Z,80.00
2018-10-07T20:10:27.038Z,80.10
2018-10-07T20:13:32.557Z,80.50
2018-10-07T20:16:38.116Z,80.70
2018-10-07T20:19:43.503Z,80.80
2018-10-07T20:22:48.918Z,81.20
2018-10-07T20:25:54.318Z,81.20
2018-10-07T20:28:59.782Z,81.20
2018-10-07T20:32:05.206Z,81.60
2018-10-07T20:35:10.726Z,81.60
2018-10-07T20:38:16.086Z,81.60
2018-10-07T20:41:21.465Z,81.70
2018-10-07T20:44:26.872Z,82.20
2018-10-07T20:47:32.278Z,82.50
2018-10-07T20:50:37.658Z,82.60
2018-10-07T20:53:43.074Z,82.50
2018-10-07T20:56:48.458Z,82.50
2018-10-07T20:59:53.837Z,82.50
2018-10-07T21:02:59.519Z,82.50
2018-10-07T21:06:05.097Z,82.60
2018-10-07T21:09:11.997Z,82.50
2018-10-07T21:12:17.365Z,82.70
2018-10-07T21:15:22.798Z,82.60
2018-10-07T21:18:28.176Z,82.90
2018-10-07T21:21:33.590Z,83.20
2018-10-07T21:24:39.031Z,83.30
2018-10-07T21:27:44.467Z,83.40
2018-10-07T21:30:49.856Z,83.40
2018-10-07T21:33:55.380Z,83.50
2018-10-07T21:37:00.795Z,83.30
2018-10-07T21:40:06.275Z,83.30
2018-10-07T21:43:11.786Z,83.20
2018-10-07T21:46:17.183Z,83.80
2018-10-07T21:49:22.594Z,83.80
2018-10-07T21:52:27.999Z,83.40
2018-10-07T21:55:33.626Z,83.80
2018-10-07T21:58:39.004Z,83.80
2018-10-07T22:01:44.410Z,83.50
2018-10-07T22:04:49.862Z,83.50
2018-10-07T22:07:55.267Z,83.60
2018-10-07T22:11:01.029Z,83.60
2018-10-07T22:14:06.525Z,83.30
2018-10-07T22:17:11.934Z,83.50
2018-10-07T22:20:17.302Z,83.90
2018-10-07T22:23:22.774Z,85.00
2018-10-07T22:26:28.194Z,84.40
2018-10-07T22:29:33.794Z,84.30
2018-10-07T22:32:39.191Z,84.10
2018-10-07T22:35:44.610Z,84.20
2018-10-07T22:38:50.082Z,84.20
2018-10-07T22:41:55.474Z,83.80
2018-10-07T22:45:00.867Z,83.90
2018-10-07T22:48:06.445Z,83.90
2018-10-07T22:51:11.822Z,83.80
2018-10-07T22:54:17.258Z,83.80
2018-10-07T22:57:22.979Z,83.50
2018-10-07T23:00:28.334Z,84.00
2018-10-07T23:03:34.002Z,85.30
2018-10-07T23:06:39.376Z,84.90
2018-10-07T23:09:44.728Z,84.80
2018-10-07T23:12:50.216Z,85.20
2018-10-07T23:15:55.575Z,85.70
2018-10-07T23:19:00.954Z,86.50
2018-10-07T23:22:07.118Z,85.70
2018-10-07T23:25:12.522Z,85.90
2018-10-07T23:28:17.923Z,86.30
2018-10-07T23:31:23.307Z,86.10
2018-10-07T23:34:28.784Z,86.20
2018-10-07T23:37:34.223Z,86.60
2018-10-07T23:40:39.774Z,86.90
2018-10-07T23:43:45.358Z,86.70
2018-10-07T23:46:50.710Z,86.60
2018-10-07T23:49:56.081Z,86.40
2018-10-07T23:53:01.719Z,86.40
2018-10-07T23:56:07.779Z,86.20
2018-10-07T23:59:13.158Z,86.70
